Tropical Cyclones
[Index]
Main Index Home Page Stock Weather Photos Extreme Storms Discussion Storm News and Storm Chasing Reports Tropical Cyclones / Hurricanes / Typhoons Weather Data and Links Wild Fires / Bushfires Weather Observation Techniques Weather Picture Catalogue Tornado Pictures and Reports Stock Video Footage and DVDs for sale
Season 1970-1971 Tropical Cyclone HILARY-DOMINIQUE Track Map
Season 1970-1971 Summaries: [BoM-AU] [JTWC-AU] [JTWC-SIO] [JTWC-SPAC] [JTWC-SH]
<<- Previous TC | JTWC 1970-1971 Season | Next TC ->>

click for intensity scale information  Lat/long Grid: Show Hide

 Date Labels: Show Hide

Joint Typhoon Warning Centre Cyclone Data

Name: HILARY-DOMINIQUE
Number: 749 / 7104

14 Dec 1970 06:00 UTC to 28 Dec 1970 06:00 UTC

    date/time    lat    long     hPa   cat  kts
1970-12-14 06   11.0    88.8                              
1970-12-14 12   11.4    89.0                              
1970-12-14 18   11.7    88.9                              
1970-12-15 00   11.9    88.6                              
1970-12-15 06   12.1    88.3                              
1970-12-15 12   12.6    88.1                              
1970-12-15 18   12.9    87.8                              
1970-12-16 00   12.9    87.4                              
1970-12-16 06   13.0    86.8                              
1970-12-16 12   13.1    86.0                              
1970-12-16 18   13.1    85.1                              
1970-12-17 00   13.1    84.1                              
1970-12-17 06   13.1    83.1                              
1970-12-17 12   13.1    81.9                              
1970-12-17 18   13.1    80.5                              
1970-12-18 00   13.1    78.8                              
1970-12-18 06   13.2    77.2                              
1970-12-18 12   13.5    76.0                              
1970-12-18 18   13.9    74.9                              
1970-12-19 00   14.0    73.6                              
1970-12-19 06   14.2    72.2                              
1970-12-19 12   14.4    70.8                              
1970-12-19 18   14.7    69.3                              
1970-12-20 00   14.9    67.6                              
1970-12-20 06   15.1    66.1                              
1970-12-20 12   15.2    65.4                              
1970-12-20 18   15.2    64.9                              
1970-12-21 00   15.3    63.8                              
1970-12-21 06   15.4    63.2                              
1970-12-21 12   15.4    63.6                              
1970-12-21 18   15.5    64.0                              
1970-12-22 00   15.5    64.2                              
1970-12-22 06   15.6    64.8                              
1970-12-22 12   15.3    66.6                              
1970-12-22 18   15.2    68.9                              
1970-12-23 00   15.6    70.9                              
1970-12-23 06   16.0    73.0                              
1970-12-23 12   16.4    73.4                              
1970-12-23 18   16.8    72.7                              
1970-12-24 00   17.2    72.4                              
1970-12-24 06   17.6    72.1                              
1970-12-24 12   17.9    71.7                              
1970-12-24 18   18.3    71.2                              
1970-12-25 00   18.7    70.7                              
1970-12-25 06   19.2    70.2                              
1970-12-25 12   19.6    69.7                              
1970-12-25 18   20.0    69.1                              
1970-12-26 00   20.4    68.4                              
1970-12-26 06   20.7    67.7                              
1970-12-26 12   20.9    67.4                              
1970-12-26 18   21.1    66.9                              
1970-12-27 00   21.2    65.5                              
1970-12-27 06   21.4    64.1                              
1970-12-27 12   21.8    62.9                              
1970-12-27 18   22.6    61.6                              
1970-12-28 00   23.5    60.3                              
1970-12-28 06   24.6    58.9                              
Winds are 1-min average.

Tropical cyclone tracks developed by Michael Bath using data from the Joint Typhoon Warning Centre Best Tracks and Google Maps.


[Australian Severe Weather index] [Copyright Notice] [Email Contacts] [Search This Site] [Privacy Policy]
Document: tropical_cyclone_hilary-dominique.htm Updated: 18 September 2016